Time;durP1;ratioP1;P1;durP2;ratioP2;P2;SDS_P1;SDS_P2;PMS_P1;PMS_P2;Temp;Humidity;BMP_temperature;BMP_pressure;BME280_temperature;BME280_humidity;BME280_pressure;Samples;Min_cycle;Max_cycle;Signal;HPM_P1;HPM_P2
2022/10/21 00:01:51;;;;;;;;;;;;;;;17.27;100.00;100543.84;5085560;28;20117;-69
2022/10/21 00:04:17;;;;;;;22.42;8.80;;;;;;;17.31;100.00;100542.50;5088373;28;19926;-70
2022/10/21 00:06:45;;;;;;;25.08;11.75;;;;;;;17.31;100.00;100536.13;5089413;28;20040;-69
2022/10/21 00:09:12;;;;;;;22.95;11.73;;;;;;;17.28;100.00;100531.47;5087999;28;20052;-71
2022/10/21 00:11:38;;;;;;;26.33;10.88;;;;;;;17.22;100.00;100524.84;5081344;28;20121;-71
2022/10/21 00:14:07;;;;;;;27.60;12.13;;;;;;;17.22;100.00;100520.03;5078597;28;20044;-70
2022/10/21 00:16:36;;;;;;;25.80;11.52;;;;;;;17.17;100.00;100523.38;5076641;28;20472;-72
2022/10/21 00:19:03;;;;;;;25.80;12.18;;;;;;;17.17;100.00;100517.00;5080400;28;20060;-70
2022/10/21 00:21:32;;;;;;;25.00;10.98;;;;;;;17.12;100.00;100520.38;5088982;28;20047;-70
2022/10/21 00:23:59;;;;;;;25.75;11.35;;;;;;;17.11;100.00;100522.38;5079192;28;20056;-71
2022/10/21 00:26:25;;;;;;;30.25;12.48;;;;;;;17.06;100.00;100505.38;5080508;28;20052;-70
2022/10/21 00:28:56;;;;;;;29.60;12.82;;;;;;;17.13;100.00;100508.75;5085905;28;20056;-70
2022/10/21 00:31:23;;;;;;;22.80;11.93;;;;;;;17.11;100.00;100513.22;5084029;28;20533;-70
2022/10/21 00:33:52;;;;;;;24.45;12.20;;;;;;;17.12;100.00;100493.22;5080030;28;20051;-70
2022/10/21 00:36:19;;;;;;;26.45;12.80;;;;;;;17.11;100.00;100485.28;5069238;28;20055;-70
2022/10/21 00:38:47;;;;;;;24.25;11.10;;;;;;;17.03;100.00;100495.09;5076576;28;20049;-71
2022/10/21 00:41:16;;;;;;;24.77;12.15;;;;;;;17.04;100.00;100486.25;5084701;28;20052;-70
2022/10/21 00:44:00;;;;;;;25.08;12.70;;;;;;;17.02;100.00;100488.72;5081213;28;20702;-70
2022/10/21 00:46:44;;;;;;;26.40;12.35;;;;;;;17.01;100.00;100491.97;5085130;28;20052;-71
2022/10/21 00:49:30;;;;;;;26.00;12.50;;;;;;;17.04;100.00;100491.09;5079826;28;20052;-69
2022/10/21 00:52:00;;;;;;;27.33;14.18;;;;;;;17.01;100.00;100492.72;5090973;28;20059;-70
2022/10/21 00:54:38;;;;;;;26.77;13.15;;;;;;;16.97;100.00;100497.66;5085229;28;20055;-71
2022/10/21 00:57:04;;;;;;;22.67;11.85;;;;;;;16.95;100.00;100502.94;5075531;28;20044;-71
2022/10/21 00:59:42;;;;;;;19.15;8.68;;;;;;;16.92;100.00;100503.03;5086931;28;20068;-71
2022/10/21 01:02:09;;;;;;;32.95;16.25;;;;;;;16.98;100.00;100502.00;5078762;28;20489;-70
2022/10/21 01:04:35;;;;;;;24.42;13.10;;;;;;;16.99;100.00;100506.38;5093809;28;20052;-70
2022/10/21 01:07:07;;;;;;;30.20;12.25;;;;;;;16.96;100.00;100512.06;5080634;28;20044;-70
2022/10/21 01:09:34;;;;;;;22.40;9.48;;;;;;;16.90;100.00;100505.47;5082044;28;20055;-71
2022/10/21 01:12:03;;;;;;;23.40;12.48;;;;;;;16.95;100.00;100513.31;5068412;28;20044;-70
2022/10/21 01:14:52;;;;;;;22.75;11.32;;;;;;;16.92;100.00;100514.19;5086938;28;20044;-71
2022/10/21 01:17:24;;;;;;;22.58;12.05;;;;;;;16.87;100.00;100515.53;5081115;28;20121;-70
2022/10/21 01:20:55;;;;;;;26.95;11.85;;;;;;;16.85;100.00;100506.81;5083220;28;20059;-70
2022/10/21 01:23:53;;;;;;;27.20;12.93;;;;;;;16.84;100.00;100507.25;5076707;28;20110;-70
2022/10/21 01:27:10;;;;;;;24.88;11.00;;;;;;;16.81;100.00;100503.31;5086397;28;20080;-70
2022/10/21 01:30:06;;;;;;;;;;;;;;;16.78;100.00;100501.41;5076735;28;20044;-70
2022/10/21 01:32:42;;;;;;;24.23;11.75;;;;;;;16.77;100.00;100502.66;5080207;28;19982;-70
2022/10/21 01:35:25;;;;;;;24.17;11.05;;;;;;;16.75;100.00;100498.75;5075566;28;20798;-71
2022/10/21 01:38:10;;;;;;;26.65;11.40;;;;;;;16.77;100.00;100487.91;5068716;28;20543;-71
2022/10/21 01:41:07;;;;;;;24.15;11.68;;;;;;;16.76;100.00;100483.53;5084535;28;20081;-71
2022/10/21 01:43:44;;;;;;;25.17;12.43;;;;;;;16.74;100.00;100480.44;5086070;28;20043;-71
2022/10/21 01:46:22;;;;;;;27.52;12.95;;;;;;;16.71;100.00;100478.53;5089508;28;20052;-71
2022/10/21 01:48:54;;;;;;;24.85;12.80;;;;;;;16.69;100.00;100472.56;5077503;28;20062;-71
2022/10/21 01:51:25;;;;;;;27.27;12.77;;;;;;;16.66;100.00;100465.88;5089055;28;20048;-71
2022/10/21 01:53:59;;;;;;;22.50;12.25;;;;;;;16.61;100.00;100452.44;5089593;28;20140;-70
2022/10/21 01:56:27;;;;;;;24.27;12.07;;;;;;;16.57;100.00;100448.22;5087564;28;20070;-70
2022/10/21 01:58:55;;;;;;;23.08;10.90;;;;;;;16.51;100.00;100449.97;5071073;28;20477;-70
2022/10/21 02:01:26;;;;;;;25.27;12.20;;;;;;;16.42;100.00;100447.84;5087145;28;20120;-71
2022/10/21 02:03:57;;;;;;;27.67;12.40;;;;;;;16.33;100.00;100442.09;5085270;28;20060;-71
2022/10/21 02:06:24;;;;;;;23.10;11.73;;;;;;;16.24;100.00;100432.78;5082999;28;20048;-71
2022/10/21 02:08:53;;;;;;;28.33;10.55;;;;;;;16.14;100.00;100426.31;5086489;28;20037;-71
2022/10/21 02:11:20;;;;;;;26.15;11.90;;;;;;;16.05;100.00;100425.34;5078673;28;20044;-71
2022/10/21 02:14:02;;;;;;;28.83;12.23;;;;;;;15.94;100.00;100424.88;5082907;28;20048;-72
2022/10/21 02:16:35;;;;;;;22.85;10.73;;;;;;;15.86;100.00;100429.09;5080307;28;20044;-71
2022/10/21 02:19:02;;;;;;;33.50;11.70;;;;;;;15.76;100.00;100419.75;5086935;28;20052;-71
2022/10/21 02:21:35;;;;;;;26.63;11.95;;;;;;;15.65;100.00;100418.50;5081085;28;20071;-72
2022/10/21 02:24:24;;;;;;;26.55;12.43;;;;;;;15.57;100.00;100405.94;5076951;28;20055;-71
2022/10/21 02:26:50;;;;;;;28.15;11.32;;;;;;;15.50;100.00;100401.34;5078391;28;20068;-72
2022/10/21 02:29:23;;;;;;;23.98;12.52;;;;;;;15.44;100.00;100412.25;5085711;28;20052;-71
2022/10/21 02:32:08;;;;;;;29.13;12.27;;;;;;;15.35;100.00;100411.25;5080705;28;20052;-72
2022/10/21 02:34:54;;;;;;;28.42;11.52;;;;;;;15.27;100.00;100405.09;5080684;28;20040;-72
2022/10/21 02:37:39;;;;;;;25.48;11.98;;;;;;;15.21;100.00;100395.69;5081749;28;20498;-72
2022/10/21 02:40:12;;;;;;;24.15;10.93;;;;;;;15.16;100.00;100396.19;5078299;28;20404;-72
2022/10/21 02:42:44;;;;;;;34.35;12.35;;;;;;;15.10;100.00;100402.75;5073274;28;20516;-73
2022/10/21 02:45:11;;;;;;;26.00;11.40;;;;;;;15.05;100.00;100394.88;5089023;28;20048;-72
2022/10/21 02:47:39;;;;;;;29.85;11.38;;;;;;;14.99;100.00;100399.44;5087777;28;20043;-72
2022/10/21 02:50:06;;;;;;;25.58;11.00;;;;;;;14.94;100.00;100397.16;5091867;28;20127;-72
2022/10/21 02:52:33;;;;;;;26.35;11.10;;;;;;;14.87;100.00;100398.13;5086773;28;20066;-72
2022/10/21 02:54:59;;;;;;;26.58;11.52;;;;;;;14.79;100.00;100393.91;5072635;28;20044;-72
2022/10/21 02:57:25;;;;;;;24.30;10.98;;;;;;;14.74;100.00;100391.66;5077035;28;20047;-72
2022/10/21 02:59:52;;;;;;;29.67;12.23;;;;;;;14.71;100.00;100386.94;5079424;28;20502;-71
2022/10/21 03:02:18;;;;;;;30.52;11.30;;;;;;;14.70;100.00;100379.81;5072095;28;20444;-70
2022/10/21 03:04:45;;;;;;;24.48;10.52;;;;;;;14.67;100.00;100389.03;5087297;28;20051;-70
2022/10/21 03:07:11;;;;;;;30.63;11.18;;;;;;;14.62;100.00;100389.53;5085042;28;20047;-71
2022/10/21 03:09:38;;;;;;;26.25;11.15;;;;;;;14.55;100.00;100386.91;5082444;28;20059;-70
2022/10/21 03:12:04;;;;;;;29.00;11.75;;;;;;;14.54;100.00;100392.91;5071941;28;20049;-70
2022/10/21 03:14:31;;;;;;;22.23;11.88;;;;;;;14.50;100.00;100398.56;5076206;28;20045;-71
2022/10/21 03:16:58;;;;;;;25.90;11.38;;;;;;;14.48;100.00;100401.00;5073173;28;20048;-72
2022/10/21 03:19:24;;;;;;;26.88;11.35;;;;;;;14.42;100.00;100399.97;5089377;28;20040;-70
2022/10/21 03:21:50;;;;;;;22.95;11.85;;;;;;;14.38;100.00;100399.22;5089209;28;20439;-72
2022/10/21 03:24:17;;;;;;;29.08;10.10;;;;;;;14.29;100.00;100403.81;5090267;28;20040;-72
2022/10/21 03:26:54;;;;;;;29.05;10.48;;;;;;;14.23;100.00;100403.53;5071348;28;20527;-72
2022/10/21 03:29:21;;;;;;;29.67;11.35;;;;;;;14.22;100.00;100401.16;5085683;28;20052;-72
2022/10/21 03:31:47;;;;;;;25.80;11.30;;;;;;;14.20;100.00;100404.34;5076699;28;20039;-70
2022/10/21 03:34:14;;;;;;;23.27;11.07;;;;;;;14.12;100.00;100382.69;5087425;28;20101;-72
2022/10/21 03:36:41;;;;;;;28.92;11.32;;;;;;;14.11;100.00;100387.44;5074789;28;20410;-71
2022/10/21 03:39:10;;;;;;;26.52;12.20;;;;;;;14.07;100.00;100383.97;5085654;28;20047;-72
2022/10/21 03:41:37;;;;;;;27.67;12.00;;;;;;;14.05;100.00;100380.84;5074308;28;20044;-72
2022/10/21 03:44:03;;;;;;;25.52;11.38;;;;;;;14.01;100.00;100385.66;5079806;28;20044;-72
2022/10/21 03:46:31;;;;;;;29.88;12.20;;;;;;;13.96;100.00;100372.28;5078386;28;20043;-72
2022/10/21 03:48:57;;;;;;;26.77;10.75;;;;;;;13.92;100.00;100363.22;5087364;28;20040;-72
2022/10/21 03:51:32;;;;;;;26.23;10.45;;;;;;;13.84;100.00;100378.47;5082552;28;20483;-72
2022/10/21 03:53:59;;;;;;;38.40;13.70;;;;;;;13.70;100.00;100370.41;5080659;28;20055;-72
2022/10/21 03:56:25;;;;;;;40.38;10.77;;;;;;;13.67;100.00;100371.25;5084122;28;20112;-71
2022/10/21 03:58:52;;;;;;;29.85;12.70;;;;;;;13.66;100.00;100375.25;5073354;28;20040;-72
2022/10/21 04:01:27;;;;;;;32.03;12.45;;;;;;;13.68;100.00;100372.84;5076171;28;20079;-71
2022/10/21 04:03:54;;;;;;;22.98;10.85;;;;;;;13.60;100.00;100365.81;5087408;28;20098;-72
2022/10/21 04:06:20;;;;;;;26.30;11.50;;;;;;;13.57;100.00;100366.66;5084879;28;20071;-71
2022/10/21 04:08:46;;;;;;;28.58;12.43;;;;;;;13.54;100.00;100370.31;5075029;28;20044;-72
2022/10/21 04:11:13;;;;;;;30.30;12.38;;;;;;;13.51;100.00;100368.41;5079107;28;20052;-72
2022/10/21 04:13:40;;;;;;;27.77;12.00;;;;;;;13.50;100.00;100375.16;5075409;28;20044;-72
2022/10/21 04:16:13;;;;;;;26.33;11.52;;;;;;;13.42;100.00;100365.38;5084695;28;20039;-72
2022/10/21 04:18:40;;;;;;;22.60;11.40;;;;;;;13.42;100.00;100365.38;5087847;28;20040;-72
2022/10/21 04:21:07;;;;;;;30.70;13.48;;;;;;;13.45;100.00;100363.72;5112220;27;20055;-71
2022/10/21 04:23:34;;;;;;;33.45;12.93;;;;;;;13.44;100.00;100362.97;5072883;28;20124;-72
2022/10/21 04:26:18;;;;;;;30.25;13.43;;;;;;;13.48;100.00;100369.25;5080117;28;20052;-72
2022/10/21 04:28:45;;;;;;;33.67;13.13;;;;;;;13.48;100.00;100369.25;5083328;28;20393;-71
2022/10/21 04:31:14;;;;;;;28.52;11.80;;;;;;;13.44;100.00;100368.53;5075668;28;20047;-72
2022/10/21 04:33:40;;;;;;;30.80;12.73;;;;;;;13.43;100.00;100363.38;5083819;28;20463;-71
2022/10/21 04:36:07;;;;;;;36.22;14.80;;;;;;;13.42;100.00;100359.81;5084010;28;20593;-71
2022/10/21 04:38:33;;;;;;;32.28;14.70;;;;;;;13.42;100.00;100362.59;5079629;28;20075;-71
2022/10/21 04:41:03;;;;;;;32.85;16.08;;;;;;;13.41;100.00;100361.03;5080716;28;20135;-71
2022/10/21 04:43:29;;;;;;;25.17;13.70;;;;;;;13.40;100.00;100367.78;5078369;28;20063;-70
2022/10/21 04:45:56;;;;;;;29.60;15.45;;;;;;;13.40;100.00;100356.66;5084370;28;20078;-71
2022/10/21 04:48:27;;;;;;;35.50;17.85;;;;;;;13.33;100.00;100353.25;5091042;28;20536;-72
2022/10/21 04:50:54;;;;;;;32.75;15.65;;;;;;;13.33;100.00;100359.56;5075780;28;20424;-72
2022/10/21 04:53:21;;;;;;;33.35;16.30;;;;;;;13.29;100.00;100355.31;5076409;28;20056;-71
2022/10/21 04:55:52;;;;;;;28.35;15.43;;;;;;;13.28;100.00;100348.16;5080301;28;20101;-71
2022/10/21 04:58:20;;;;;;;37.80;17.08;;;;;;;13.27;100.00;100347.41;5073243;28;20052;-73
2022/10/21 05:00:49;;;;;;;33.53;18.13;;;;;;;13.28;100.00;100359.28;5083933;28;20092;-70
2022/10/21 05:03:15;;;;;;;34.63;15.90;;;;;;;13.22;100.00;100356.22;5089549;28;20073;-72
2022/10/21 05:05:42;;;;;;;33.50;15.70;;;;;;;13.21;100.00;100360.19;5084609;28;20190;-72
2022/10/21 05:08:08;;;;;;;30.95;14.52;;;;;;;13.19;100.00;100359.81;5074720;28;20044;-72
2022/10/21 05:10:37;;;;;;;32.10;16.00;;;;;;;13.21;100.00;100356.63;5076554;28;20056;-72
2022/10/21 05:13:04;;;;;;;26.48;12.82;;;;;;;13.20;100.00;100361.41;5075598;28;20059;-72
2022/10/21 05:15:33;;;;;;;27.38;14.05;;;;;;;13.17;100.00;100361.47;5085330;28;20048;-72
2022/10/21 05:18:00;;;;;;;26.90;13.38;;;;;;;13.18;100.00;100354.69;5074322;28;20052;-70
2022/10/21 05:20:26;;;;;;;29.67;13.23;;;;;;;13.17;100.00;100347.56;5082401;28;20052;-71
2022/10/21 05:22:53;;;;;;;28.10;13.20;;;;;;;13.18;100.00;100344.38;5084079;28;20052;-71
2022/10/21 05:25:20;;;;;;;32.95;17.10;;;;;;;13.21;100.00;100343.53;5080827;28;20048;-72
2022/10/21 05:27:50;;;;;;;27.70;13.45;;;;;;;13.17;100.00;100353.13;5080253;28;20052;-72
2022/10/21 05:30:17;;;;;;;30.38;14.43;;;;;;;13.14;100.00;100354.78;5077929;28;20059;-72
2022/10/21 05:32:43;;;;;;;29.50;15.88;;;;;;;13.16;100.00;100352.34;5086054;28;20055;-72
2022/10/21 05:35:12;;;;;;;31.25;13.93;;;;;;;13.15;100.00;100352.75;5085923;28;20051;-72
2022/10/21 05:37:39;;;;;;;30.92;14.10;;;;;;;13.13;100.00;100342.06;5081607;28;20059;-71
2022/10/21 05:40:06;;;;;;;31.02;13.30;;;;;;;13.16;100.00;100332.91;5090939;28;20589;-72
2022/10/21 05:42:33;;;;;;;30.60;13.93;;;;;;;13.18;100.00;100338.81;5091712;28;20071;-71
2022/10/21 05:44:59;;;;;;;28.85;14.18;;;;;;;13.18;100.00;100336.03;5094777;28;20050;-73
2022/10/21 05:47:25;;;;;;;31.05;14.82;;;;;;;13.18;100.00;100340.81;5089588;28;20052;-72
2022/10/21 05:49:52;;;;;;;24.80;13.20;;;;;;;13.19;100.00;100343.16;5091203;28;20067;-69
2022/10/21 05:52:18;;;;;;;31.33;13.80;;;;;;;13.17;100.00;100331.72;5094681;28;20071;-69
2022/10/21 05:54:45;;;;;;;26.83;13.30;;;;;;;13.17;100.00;100328.94;5090460;28;20052;-70
2022/10/21 05:57:11;;;;;;;25.85;13.18;;;;;;;13.18;100.00;100333.25;5090943;28;20047;-72
2022/10/21 05:59:38;;;;;;;28.02;14.13;;;;;;;13.16;100.00;100324.56;5090912;28;20098;-70
2022/10/21 06:02:09;;;;;;;28.75;13.70;;;;;;;13.14;100.00;100324.22;5091129;28;20669;-70
2022/10/21 06:04:35;;;;;;;24.77;13.23;;;;;;;13.09;100.00;100323.91;5089303;28;20516;-69
2022/10/21 06:07:04;;;;;;;23.80;13.27;;;;;;;13.05;100.00;100323.97;5087188;28;20052;-70
2022/10/21 06:09:30;;;;;;;28.75;12.40;;;;;;;13.00;100.00;100333.56;5089900;28;20093;-72
2022/10/21 06:11:57;;;;;;;26.48;12.48;;;;;;;12.96;100.00;100321.72;5090985;28;20048;-73
2022/10/21 06:14:25;;;;;;;26.23;12.82;;;;;;;12.92;100.00;100320.97;5094509;28;20056;-72
2022/10/21 06:16:51;;;;;;;33.55;13.98;;;;;;;12.95;100.00;100313.78;5089788;28;20531;-72
2022/10/21 06:19:18;;;;;;;29.70;13.93;;;;;;;12.94;100.00;100309.47;5088650;28;20048;-72
2022/10/21 06:21:46;;;;;;;34.33;18.00;;;;;;;12.94;100.00;100307.47;5085287;28;20102;-71
2022/10/21 06:24:12;;;;;;;27.38;16.17;;;;;;;12.91;100.00;100305.53;5086099;28;20051;-73
2022/10/21 06:26:39;;;;;;;26.83;14.15;;;;;;;12.90;100.00;100315.06;5088148;28;20052;-71
2022/10/21 06:29:06;;;;;;;30.67;15.13;;;;;;;12.93;100.00;100330.13;5087619;28;20059;-70
2022/10/21 06:31:32;;;;;;;27.98;16.10;;;;;;;12.89;100.00;100327.38;5092685;28;20043;-71
2022/10/21 06:33:58;;;;;;;31.00;13.55;;;;;;;12.84;100.00;100330.66;5091794;28;20515;-70
2022/10/21 06:36:26;;;;;;;26.17;13.80;;;;;;;12.89;100.00;100332.13;5089300;28;20051;-70
2022/10/21 06:38:53;;;;;;;30.42;12.75;;;;;;;12.86;100.00;100331.00;5083304;28;20056;-71
2022/10/21 06:41:19;;;;;;;31.40;14.85;;;;;;;12.87;100.00;100340.13;5078623;28;20044;-71
2022/10/21 06:43:45;;;;;;;29.13;13.65;;;;;;;12.83;100.00;100331.06;5084381;28;20051;-71
2022/10/21 06:46:14;;;;;;;28.98;13.25;;;;;;;12.84;100.00;100338.19;5087981;28;20040;-73
2022/10/21 06:48:41;;;;;;;25.13;12.82;;;;;;;12.86;100.00;100335.78;5089531;28;20048;-71
2022/10/21 06:51:13;;;;;;;26.05;12.02;;;;;;;12.87;100.00;100329.00;5087377;28;20047;-73
2022/10/21 06:53:40;;;;;;;25.15;12.13;;;;;;;12.92;100.00;100331.28;5083294;28;20052;-72
2022/10/21 06:56:13;;;;;;;26.52;11.95;;;;;;;12.97;100.00;100341.94;5084073;28;20125;-74
2022/10/21 06:58:42;;;;;;;27.23;11.27;;;;;;;13.02;100.00;100335.91;5085256;28;20048;-72
2022/10/21 07:01:14;;;;;;;25.75;11.63;;;;;;;13.06;100.00;100333.88;5075567;28;20048;-71
2022/10/21 07:04:00;;;;;;;29.63;12.93;;;;;;;13.10;100.00;100345.72;5095432;28;20105;-72
2022/10/21 07:06:26;;;;;;;26.05;12.52;;;;;;;13.10;100.00;100340.16;5073447;28;20049;-72
2022/10/21 07:08:54;;;;;;;27.60;13.02;;;;;;;13.12;100.00;100346.06;5085367;28;20586;-72
2022/10/21 07:11:25;;;;;;;33.42;13.82;;;;;;;13.15;100.00;100350.78;5082635;28;20053;-72
2022/10/21 07:13:52;;;;;;;27.08;12.00;;;;;;;13.18;100.00;100355.50;5079858;28;20048;-71
2022/10/21 07:16:26;;;;;;;25.58;12.93;;;;;;;13.22;100.00;100356.22;5078035;28;20063;-70
2022/10/21 07:18:53;;;;;;;25.35;11.45;;;;;;;13.27;100.00;100361.28;5072805;28;20052;-70
2022/10/21 07:21:22;;;;;;;31.40;14.27;;;;;;;13.32;100.00;100363.56;5086446;28;20147;-72
2022/10/21 07:23:50;;;;;;;27.35;13.63;;;;;;;13.37;100.00;100365.88;5092344;28;20109;-72
2022/10/21 07:26:19;;;;;;;32.65;13.13;;;;;;;13.43;100.00;100371.72;5084692;28;20055;-71
2022/10/21 07:28:46;;;;;;;27.75;12.63;;;;;;;13.50;100.00;100371.59;5072885;28;20610;-72
2022/10/21 07:31:18;;;;;;;26.95;12.75;;;;;;;13.54;100.00;100367.53;5086248;28;20052;-70
2022/10/21 07:33:45;;;;;;;26.58;13.65;;;;;;;13.59;100.00;100372.59;5082305;28;20467;-70
2022/10/21 07:36:18;;;;;;;30.10;14.48;;;;;;;13.65;100.00;100370.09;5080109;28;20877;-71
2022/10/21 07:38:46;;;;;;;28.30;13.90;;;;;;;13.68;100.00;100375.63;5081490;28;20085;-69
2022/10/21 07:41:19;;;;;;;25.88;12.88;;;;;;;13.66;100.00;100380.00;5071551;28;20048;-71
2022/10/21 07:43:45;;;;;;;31.77;13.23;;;;;;;13.72;100.00;100384.66;5085885;28;20063;-70
2022/10/21 07:46:12;;;;;;;28.83;14.02;;;;;;;13.80;100.00;100390.88;5080352;28;20052;-71
2022/10/21 07:48:38;;;;;;;28.65;14.63;;;;;;;13.85;100.00;100374.50;5080920;28;20082;-70
2022/10/21 07:51:07;;;;;;;29.95;14.60;;;;;;;13.95;100.00;100387.41;5087227;28;20460;-72
2022/10/21 07:53:34;;;;;;;32.70;15.68;;;;;;;14.00;100.00;100398.00;5085972;28;20094;-72
2022/10/21 07:56:17;;;;;;;26.33;15.10;;;;;;;14.06;100.00;100392.72;5087480;28;20709;-72
2022/10/21 07:58:45;;;;;;;31.40;15.20;;;;;;;14.13;100.00;100390.59;5069281;28;20048;-70
2022/10/21 08:01:13;;;;;;;30.13;14.50;;;;;;;14.17;100.00;100399.66;5084223;28;20501;-72
2022/10/21 08:03:40;;;;;;;26.17;13.98;;;;;;;14.21;100.00;100402.38;5074739;28;20056;-70
2022/10/21 08:06:08;;;;;;;28.17;15.50;;;;;;;14.27;100.00;100404.25;5079791;28;20390;-70
2022/10/21 08:08:35;;;;;;;30.67;14.50;;;;;;;14.32;100.00;100420.44;5077809;28;20064;-69
2022/10/21 08:11:03;;;;;;;33.55;15.40;;;;;;;14.39;100.00;100420.28;5076227;28;20135;-70
2022/10/21 08:13:31;;;;;;;27.50;16.17;;;;;;;14.45;100.00;100412.97;5080164;28;20087;-70
2022/10/21 08:15:57;;;;;;;30.40;17.08;;;;;;;14.52;100.00;100412.81;5080521;28;20069;-70
2022/10/21 08:18:25;;;;;;;30.35;14.45;;;;;;;14.59;100.00;100409.13;5071190;28;20448;-70
2022/10/21 08:20:51;;;;;;;31.27;16.05;;;;;;;14.63;100.00;100407.03;5088865;28;20048;-70
2022/10/21 08:23:20;;;;;;;29.95;15.75;;;;;;;14.67;100.00;100391.81;5088421;28;20123;-73
2022/10/21 08:25:48;;;;;;;31.38;15.07;;;;;;;14.72;100.00;100390.53;5080836;28;20055;-72
2022/10/21 08:28:16;;;;;;;27.23;15.73;;;;;;;14.78;100.00;100394.38;5089071;28;20071;-72
2022/10/21 08:30:43;;;;;;;32.42;15.30;;;;;;;14.82;100.00;100401.41;5075435;28;20048;-72
2022/10/21 08:33:11;;;;;;;26.83;15.55;;;;;;;14.86;100.00;100399.34;5087460;28;20059;-72
2022/10/21 08:35:38;;;;;;;25.15;15.52;;;;;;;14.92;100.00;100400.38;5088137;28;20055;-69
2022/10/21 08:38:05;;;;;;;27.95;15.95;;;;;;;14.97;100.00;100408.22;5076469;28;20084;-70
2022/10/21 08:40:44;;;;;;;30.20;15.30;;;;;;;15.02;100.00;100402.13;5080817;28;20074;-70
2022/10/21 08:43:25;;;;;;;28.08;13.77;;;;;;;15.07;100.00;100407.19;5085178;28;20048;-72
2022/10/21 08:45:59;;;;;;;24.05;13.95;;;;;;;15.12;100.00;100400.31;5077007;28;20497;-72
2022/10/21 08:48:33;;;;;;;30.70;14.90;;;;;;;15.14;100.00;100400.66;5085120;28;20407;-70
2022/10/21 08:51:02;;;;;;;30.80;14.10;;;;;;;15.15;100.00;100405.00;5077964;28;20055;-72
2022/10/21 08:53:33;;;;;;;28.55;12.00;;;;;;;15.22;100.00;100402.81;5094450;28;20131;-72
2022/10/21 08:56:09;;;;;;;24.73;10.75;;;;;;;15.38;100.00;100397.28;5088468;28;20439;-72
2022/10/21 08:58:43;;;;;;;20.25;10.07;;;;;;;15.61;100.00;100403.84;5079829;28;20130;-72
2022/10/21 09:01:36;;;;;;;20.67;9.85;;;;;;;15.77;100.00;100401.03;5087681;28;20051;-72
2022/10/21 09:04:03;;;;;;;18.60;8.13;;;;;;;15.91;100.00;100400.63;5088636;28;20051;-72
2022/10/21 09:06:59;;;;;;;15.48;7.40;;;;;;;16.04;100.00;100401.47;5086615;28;20048;-70
2022/10/21 09:09:34;;;;;;;15.95;5.80;;;;;;;16.18;100.00;100398.28;5065058;28;20152;-69
2022/10/21 09:12:16;;;;;;;19.85;6.95;;;;;;;16.33;100.00;100405.78;5087205;28;20052;-70
2022/10/21 09:15:08;;;;;;;17.13;5.38;;;;;;;16.50;100.00;100400.94;5086909;28;20067;-70
2022/10/21 09:17:42;;;;;;;14.02;5.57;;;;;;;16.63;100.00;100404.50;5088959;28;20044;-70
2022/10/21 09:20:34;;;;;;;14.43;5.82;;;;;;;16.68;100.00;100403.97;5087236;28;20040;-70
2022/10/21 09:23:27;;;;;;;13.18;4.70;;;;;;;16.76;100.00;100400.53;5087899;28;20059;-69
2022/10/21 09:25:59;;;;;;;11.93;4.00;;;;;;;16.87;100.00;100405.78;5089302;28;20059;-70
2022/10/21 09:28:29;;;;;;;13.48;4.32;;;;;;;16.96;100.00;100408.66;5087227;28;20058;-71
2022/10/21 09:30:59;;;;;;;12.23;4.63;;;;;;;17.05;100.00;100415.13;5086418;28;20048;-71
2022/10/21 09:33:29;;;;;;;10.77;3.78;;;;;;;17.09;100.00;100426.22;5087385;28;20105;-70
2022/10/21 09:36:02;;;;;;;11.43;4.45;;;;;;;17.15;100.00;100418.84;5086815;28;20059;-69
2022/10/21 09:38:55;;;;;;;17.30;5.18;;;;;;;17.21;100.00;100419.84;5087859;28;20051;-70
2022/10/21 09:41:28;;;;;;;12.30;3.97;;;;;;;17.19;100.00;100425.09;5086724;28;20052;-70
2022/10/21 09:43:55;;;;;;;10.55;4.20;;;;;;;17.17;100.00;100431.13;5085907;28;20051;-70
2022/10/21 09:46:22;;;;;;;13.68;4.90;;;;;;;17.18;100.00;100429.88;5086935;28;20060;-70
2022/10/21 09:48:53;;;;;;;13.45;5.00;;;;;;;17.18;100.00;100440.31;5086592;28;20060;-70
2022/10/21 09:51:41;;;;;;;13.27;5.18;;;;;;;17.20;100.00;100441.41;5087530;28;20574;-70
2022/10/21 09:54:16;;;;;;;14.38;5.03;;;;;;;17.19;100.00;100442.66;5087670;28;20048;-71
2022/10/21 09:56:48;;;;;;;15.50;5.20;;;;;;;17.19;100.00;100456.63;5059337;28;20109;-70
2022/10/21 09:59:18;;;;;;;14.93;5.18;;;;;;;17.20;100.00;100455.41;5063089;28;20043;-71
2022/10/21 10:01:45;;;;;;;16.13;5.32;;;;;;;17.19;100.00;100455.84;5059865;28;20942;-72
2022/10/21 10:04:15;;;;;;;17.27;5.03;;;;;;;17.16;100.00;100456.75;5052944;28;20791;-73
2022/10/21 10:06:43;;;;;;;19.23;6.18;;;;;;;17.22;100.00;100454.94;5069759;28;20048;-71
2022/10/21 10:09:14;;;;;;;15.05;5.25;;;;;;;17.20;100.00;100458.19;5071616;27;20058;-71
2022/10/21 10:11:55;;;;;;;18.30;7.32;;;;;;;17.23;100.00;100454.50;5072487;28;20051;-72
2022/10/21 10:14:26;;;;;;;18.95;5.78;;;;;;;17.26;100.00;100452.81;5072051;28;20070;-73
2022/10/21 10:16:52;;;;;;;16.38;6.22;;;;;;;17.29;100.00;100455.50;5072724;28;20466;-72
2022/10/21 10:19:22;;;;;;;15.00;6.40;;;;;;;17.28;100.00;100451.13;5070971;28;20504;-72
2022/10/21 10:22:07;;;;;;;14.23;5.88;;;;;;;17.28;100.00;100453.16;5096482;27;20623;-72
2022/10/21 10:24:39;;;;;;;16.00;5.90;;;;;;;17.29;100.00;100454.72;5071444;28;20055;-72
2022/10/21 10:27:12;;;;;;;20.35;6.25;;;;;;;17.30;100.00;100451.47;5071448;28;20048;-71
2022/10/21 10:29:41;;;;;;;20.08;6.28;;;;;;;17.33;100.00;100464.56;5068128;28;20047;-72
2022/10/21 10:32:13;;;;;;;12.43;4.05;;;;;;;17.22;100.00;100469.69;5080117;28;20074;-73
2022/10/21 10:34:52;;;;;;;16.52;5.90;;;;;;;17.21;100.00;100478.56;5069925;28;20055;-71
2022/10/21 10:37:30;;;;;;;13.55;5.38;;;;;;;17.24;100.00;100494.41;5065988;28;20093;-71
2022/10/21 10:39:58;;;;;;;13.07;5.03;;;;;;;17.17;100.00;100503.81;5069328;28;20056;-71
2022/10/21 10:42:32;;;;;;;15.52;6.05;;;;;;;17.15;100.00;100500.69;5069594;28;20069;-72
2022/10/21 10:45:04;;;;;;;14.63;4.28;;;;;;;17.05;100.00;100498.22;5066289;28;20143;-72
2022/10/21 10:47:40;;;;;;;11.57;3.72;;;;;;;17.00;100.00;100509.94;5068930;28;20058;-72
2022/10/21 10:50:46;;;;;;;4.82;1.85;;;;;;;16.91;100.00;100505.03;5067231;28;20096;-72
2022/10/21 10:53:31;;;;;;;15.63;5.53;;;;;;;16.95;100.00;100502.13;5059915;28;20059;-71
2022/10/21 10:56:03;;;;;;;14.75;5.57;;;;;;;16.92;100.00;100497.44;5061838;28;20047;-72
2022/10/21 10:58:34;;;;;;;16.38;4.68;;;;;;;16.90;100.00;100495.06;5059613;28;20052;-72
2022/10/21 11:01:07;;;;;;;14.88;4.30;;;;;;;16.86;100.00;100496.41;5057165;28;20048;-73
2022/10/21 11:03:41;;;;;;;12.88;5.07;;;;;;;16.87;100.00;100495.19;5067394;28;20052;-71
2022/10/21 11:06:16;;;;;;;12.77;5.22;;;;;;;16.83;100.00;100492.50;5061316;28;20726;-71
2022/10/21 11:08:51;;;;;;;16.58;6.20;;;;;;;16.91;100.00;100482.66;5057413;28;20861;-71
2022/10/21 11:11:34;;;;;;;16.27;5.97;;;;;;;16.91;100.00;100481.91;5059733;28;20479;-71
2022/10/21 11:14:01;;;;;;;15.57;5.03;;;;;;;16.87;100.00;100500.78;5057050;28;22462;-71
2022/10/21 11:16:35;;;;;;;15.25;5.78;;;;;;;16.87;100.00;100506.38;5058402;28;20130;-70
2022/10/21 11:19:43;;;;;;;17.77;5.22;;;;;;;16.88;100.00;100505.13;5061083;28;20060;-72
2022/10/21 11:22:47;;;;;;;16.40;7.03;;;;;;;16.89;100.00;100490.72;5060999;28;20056;-71
2022/10/21 11:25:44;;;;;;;15.27;6.45;;;;;;;16.91;100.00;100488.25;4988923;28;20098;-72